Britney Lee — WDC2895 — position and weather

sailwx.info

Track history (hours):
 
Tides and Currents Weather Stations Pressure Air Temp Water Temp Dewpoint Dewpoint Depression Visibility Wind Speed Wind Dir Waves Ship Positions

Britney Lee

Owner: Western Rivers Boat Management, Inc., Paducah, KY. More information available from US FCC via Universal Licensing System and Coast Guard Vessel Documentation Center.

Last reported at 2016-Jan-31 21:06 UTC. Time now 2016-Feb-06 09:19 UTC.
Position N 32°44' W 091°04'.

Length 44 m.

Type: Tow > 200 m length. MMSI: 367129650.

Date/timePositionNaut miles runAvg speedWind from/ knotsBaromVisibWave heightAir tempDewpointWater temp
2016-Jan-31 21:06N 32°44' W 091°04'8 4.7
2016-Jan-31 19:21N 32°37' W 091°09'4 4.9
2016-Jan-31 18:32N 32°33' W 091°07'5 5.0
2016-Jan-31 17:33N 32°28' W 091°06'5 5.1
2016-Jan-31 16:33N 32°26' W 091°01'4 4.4
2016-Jan-31 15:33N 32°22' W 090°60'3 3.5
2016-Jan-31 14:33N 32°21' W 090°56'3 3.3
2016-Jan-31 13:33N 32°17' W 090°56'5 5.0
2016-Jan-31 12:33N 32°13' W 090°59'5 5.0
2016-Jan-31 11:33N 32°08' W 091°00'5 4.9
2016-Jan-31 10:33N 32°08' W 091°06'6 4.3
2016-Jan-31 09:13N 32°03' W 091°04'  
2016-Jan-25 16:33N 31°60' W 091°06'8 7.7
2016-Jan-25 15:33N 32°07' W 091°06'7 7.1
2016-Jan-25 14:33N 32°11' W 090°60'10 9.6
2016-Jan-25 13:33N 32°20' W 090°54'9 8.6
2016-Jan-25 12:33N 32°26' W 091°01'3 3.4
2016-Jan-25 11:33N 32°27' W 091°05'0 0.0
2016-Jan-25 10:33N 32°27' W 091°05'0 0.0
2016-Jan-25 09:33N 32°27' W 091°05'0 0.0
2016-Jan-25 08:33N 32°27' W 091°05'0 0.0
2016-Jan-25 07:33N 32°27' W 091°05'0 0.0
2016-Jan-25 06:33N 32°27' W 091°05'0 0.0
2016-Jan-25 05:33N 32°27' W 091°05'0 0.0
2016-Jan-25 04:33N 32°27' W 091°05'0 0.0
2016-Jan-25 03:33N 32°27' W 091°05'0 0.0
2016-Jan-25 02:33N 32°27' W 091°05'0 0.0
2016-Jan-25 01:33N 32°27' W 091°05'0 0.0
2016-Jan-25 00:33N 32°27' W 091°05'0 0.0
2016-Jan-24 23:33N 32°27' W 091°05'0 0.0
2016-Jan-24 22:33N 32°27' W 091°05'0 0.0
2016-Jan-24 21:33N 32°27' W 091°05'0 0.0
2016-Jan-24 20:33N 32°27' W 091°05'0 0.0
2016-Jan-24 19:33N 32°27' W 091°05'0 0.0
2016-Jan-24 18:33N 32°27' W 091°05'0 0.0
2016-Jan-24 17:33N 32°27' W 091°05'0 0.0
2016-Jan-24 16:33N 32°27' W 091°05'0 0.0
2016-Jan-24 15:33N 32°27' W 091°05'0 0.0
2016-Jan-24 14:33N 32°27' W 091°05'0 0.0
2016-Jan-24 13:33N 32°27' W 091°05'0 0.0
2016-Jan-24 12:33N 32°27' W 091°05'0 0.0
2016-Jan-24 11:33N 32°27' W 091°05'0 0.0
2016-Jan-24 10:33N 32°27' W 091°05'0 0.0
2016-Jan-24 09:33N 32°27' W 091°05'0 0.0
2016-Jan-24 08:33N 32°27' W 091°05'0 0.0
2016-Jan-24 07:33N 32°27' W 091°05'0 0.0
2016-Jan-24 06:33N 32°27' W 091°05'0 0.0
2016-Jan-24 05:33N 32°27' W 091°05'0 0.0
2016-Jan-24 04:33N 32°27' W 091°05'0 0.0
2016-Jan-24 03:33N 32°27' W 091°05'0 0.0
2016-Jan-24 02:33N 32°27' W 091°05'0 0.0
2016-Jan-24 01:33N 32°27' W 091°05'0 0.0
2016-Jan-24 00:33N 32°27' W 091°05'0 0.0
2016-Jan-23 23:33N 32°27' W 091°05'0 0.0
2016-Jan-23 22:33N 32°27' W 091°05'0 0.0
2016-Jan-23 21:33N 32°27' W 091°05'0 0.0
2016-Jan-23 20:33N 32°27' W 091°05'0 0.0
2016-Jan-23 19:33N 32°27' W 091°05'0 0.0
2016-Jan-23 18:33N 32°27' W 091°05'0 0.0
2016-Jan-23 17:33N 32°27' W 091°05'0 0.0
2016-Jan-23 16:33N 32°27' W 091°05'0 0.0
2016-Jan-23 15:33N 32°27' W 091°05'0 0.0
2016-Jan-23 14:33N 32°27' W 091°05'0 0.0
2016-Jan-23 13:33N 32°27' W 091°05'0 0.0
2016-Jan-23 12:33N 32°27' W 091°05'0 0.0
2016-Jan-23 11:33N 32°27' W 091°05'0 0.0
2016-Jan-23 10:33N 32°27' W 091°05'0 0.0
2016-Jan-23 09:33N 32°27' W 091°05'0 0.0
2016-Jan-23 08:33N 32°27' W 091°05'0 0.0
2016-Jan-23 07:31N 32°27' W 091°05'0 0.0
2016-Jan-23 06:34N 32°27' W 091°05'0 0.0
2016-Jan-23 05:33N 32°27' W 091°05'0 0.0
2016-Jan-23 04:33N 32°27' W 091°05'0 0.0
2016-Jan-23 03:33N 32°27' W 091°05'0 0.0
2016-Jan-23 02:34N 32°27' W 091°05'0 0.0
2016-Jan-23 01:32N 32°27' W 091°05'0 0.0
2016-Jan-23 00:33N 32°27' W 091°05'0 0.0
2016-Jan-22 22:33N 32°27' W 091°05'0 0.0
2016-Jan-22 21:33N 32°27' W 091°05'0 0.0
2016-Jan-22 20:33N 32°27' W 091°05'0 0.0
2016-Jan-22 19:33N 32°27' W 091°05'0 0.0
2016-Jan-22 18:33N 32°27' W 091°05'0 0.0
2016-Jan-22 17:33N 32°27' W 091°05'0 0.0
2016-Jan-22 16:33N 32°27' W 091°05'0 0.0
2016-Jan-22 15:33N 32°27' W 091°05'0 0.0
2016-Jan-22 14:33N 32°27' W 091°05'0 0.0
2016-Jan-22 13:30N 32°27' W 091°05'0 0.0
2016-Jan-22 12:33N 32°27' W 091°05'0 0.0
2016-Jan-22 11:33N 32°27' W 091°05'0 0.0
2016-Jan-22 10:33N 32°27' W 091°05'0 0.0
2016-Jan-22 09:33N 32°27' W 091°05'0 0.0
2016-Jan-22 08:33N 32°27' W 091°05'0 0.1
2016-Jan-22 07:33N 32°27' W 091°05'5 5.2
2016-Jan-22 06:33N 32°32' W 091°06'  
Track history (hours):
 
Tides and Currents Weather Stations Pressure Air Temp Water Temp Dewpoint Dewpoint Depression Visibility Wind Speed Wind Dir Waves Ship Positions

Britney Lee

Owner: Western Rivers Boat Management, Inc., Paducah, KY. More information available from US FCC via Universal Licensing System and Coast Guard Vessel Documentation Center.

Last reported at 2016-Jan-31 21:06 UTC. Time now 2016-Feb-06 09:19 UTC.
Position N 32°44' W 091°04'.

Length 44 m.

Type: Tow > 200 m length. MMSI: 367129650.

Date/timePositionNaut miles runAvg speedWind from/ knotsBaromVisibWave heightAir tempDewpointWater temp
2016-Jan-31 21:06N 32°44' W 091°04'8 4.7
2016-Jan-31 19:21N 32°37' W 091°09'4 4.9
2016-Jan-31 18:32N 32°33' W 091°07'5 5.0
2016-Jan-31 17:33N 32°28' W 091°06'5 5.1
2016-Jan-31 16:33N 32°26' W 091°01'4 4.4
2016-Jan-31 15:33N 32°22' W 090°60'3 3.5
2016-Jan-31 14:33N 32°21' W 090°56'3 3.3
2016-Jan-31 13:33N 32°17' W 090°56'5 5.0
2016-Jan-31 12:33N 32°13' W 090°59'5 5.0
2016-Jan-31 11:33N 32°08' W 091°00'5 4.9
2016-Jan-31 10:33N 32°08' W 091°06'6 4.3
2016-Jan-31 09:13N 32°03' W 091°04'  
2016-Jan-25 16:33N 31°60' W 091°06'8 7.7
2016-Jan-25 15:33N 32°07' W 091°06'7 7.1
2016-Jan-25 14:33N 32°11' W 090°60'10 9.6
2016-Jan-25 13:33N 32°20' W 090°54'9 8.6
2016-Jan-25 12:33N 32°26' W 091°01'3 3.4
2016-Jan-25 11:33N 32°27' W 091°05'0 0.0
2016-Jan-25 10:33N 32°27' W 091°05'0 0.0
2016-Jan-25 09:33N 32°27' W 091°05'0 0.0
2016-Jan-25 08:33N 32°27' W 091°05'0 0.0
2016-Jan-25 07:33N 32°27' W 091°05'0 0.0
2016-Jan-25 06:33N 32°27' W 091°05'0 0.0
2016-Jan-25 05:33N 32°27' W 091°05'0 0.0
2016-Jan-25 04:33N 32°27' W 091°05'0 0.0
2016-Jan-25 03:33N 32°27' W 091°05'0 0.0
2016-Jan-25 02:33N 32°27' W 091°05'0 0.0
2016-Jan-25 01:33N 32°27' W 091°05'0 0.0
2016-Jan-25 00:33N 32°27' W 091°05'0 0.0
2016-Jan-24 23:33N 32°27' W 091°05'0 0.0
2016-Jan-24 22:33N 32°27' W 091°05'0 0.0
2016-Jan-24 21:33N 32°27' W 091°05'0 0.0
2016-Jan-24 20:33N 32°27' W 091°05'0 0.0
2016-Jan-24 19:33N 32°27' W 091°05'0 0.0
2016-Jan-24 18:33N 32°27' W 091°05'0 0.0
2016-Jan-24 17:33N 32°27' W 091°05'0 0.0
2016-Jan-24 16:33N 32°27' W 091°05'0 0.0
2016-Jan-24 15:33N 32°27' W 091°05'0 0.0
2016-Jan-24 14:33N 32°27' W 091°05'0 0.0
2016-Jan-24 13:33N 32°27' W 091°05'0 0.0
2016-Jan-24 12:33N 32°27' W 091°05'0 0.0
2016-Jan-24 11:33N 32°27' W 091°05'0 0.0
2016-Jan-24 10:33N 32°27' W 091°05'0 0.0
2016-Jan-24 09:33N 32°27' W 091°05'0 0.0
2016-Jan-24 08:33N 32°27' W 091°05'0 0.0
2016-Jan-24 07:33N 32°27' W 091°05'0 0.0
2016-Jan-24 06:33N 32°27' W 091°05'0 0.0
2016-Jan-24 05:33N 32°27' W 091°05'0 0.0
2016-Jan-24 04:33N 32°27' W 091°05'0 0.0
2016-Jan-24 03:33N 32°27' W 091°05'0 0.0
2016-Jan-24 02:33N 32°27' W 091°05'0 0.0
2016-Jan-24 01:33N 32°27' W 091°05'0 0.0
2016-Jan-24 00:33N 32°27' W 091°05'0 0.0
2016-Jan-23 23:33N 32°27' W 091°05'0 0.0
2016-Jan-23 22:33N 32°27' W 091°05'0 0.0
2016-Jan-23 21:33N 32°27' W 091°05'0 0.0
2016-Jan-23 20:33N 32°27' W 091°05'0 0.0
2016-Jan-23 19:33N 32°27' W 091°05'0 0.0
2016-Jan-23 18:33N 32°27' W 091°05'0 0.0
2016-Jan-23 17:33N 32°27' W 091°05'0 0.0
2016-Jan-23 16:33N 32°27' W 091°05'0 0.0
2016-Jan-23 15:33N 32°27' W 091°05'0 0.0
2016-Jan-23 14:33N 32°27' W 091°05'0 0.0
2016-Jan-23 13:33N 32°27' W 091°05'0 0.0
2016-Jan-23 12:33N 32°27' W 091°05'0 0.0
2016-Jan-23 11:33N 32°27' W 091°05'0 0.0
2016-Jan-23 10:33N 32°27' W 091°05'0 0.0
2016-Jan-23 09:33N 32°27' W 091°05'0 0.0
2016-Jan-23 08:33N 32°27' W 091°05'0 0.0
2016-Jan-23 07:31N 32°27' W 091°05'0 0.0
2016-Jan-23 06:34N 32°27' W 091°05'0 0.0
2016-Jan-23 05:33N 32°27' W 091°05'0 0.0
2016-Jan-23 04:33N 32°27' W 091°05'0 0.0
2016-Jan-23 03:33N 32°27' W 091°05'0 0.0
2016-Jan-23 02:34N 32°27' W 091°05'0 0.0
2016-Jan-23 01:32N 32°27' W 091°05'0 0.0
2016-Jan-23 00:33N 32°27' W 091°05'0 0.0
2016-Jan-22 22:33N 32°27' W 091°05'0 0.0
2016-Jan-22 21:33N 32°27' W 091°05'0 0.0
2016-Jan-22 20:33N 32°27' W 091°05'0 0.0
2016-Jan-22 19:33N 32°27' W 091°05'0 0.0
2016-Jan-22 18:33N 32°27' W 091°05'0 0.0
2016-Jan-22 17:33N 32°27' W 091°05'0 0.0
2016-Jan-22 16:33N 32°27' W 091°05'0 0.0
2016-Jan-22 15:33N 32°27' W 091°05'0 0.0
2016-Jan-22 14:33N 32°27' W 091°05'0 0.0
2016-Jan-22 13:30N 32°27' W 091°05'0 0.0
2016-Jan-22 12:33N 32°27' W 091°05'0 0.0
2016-Jan-22 11:33N 32°27' W 091°05'0 0.0
2016-Jan-22 10:33N 32°27' W 091°05'0 0.0
2016-Jan-22 09:33N 32°27' W 091°05'0 0.0
2016-Jan-22 08:33N 32°27' W 091°05'0 0.1
2016-Jan-22 07:33N 32°27' W 091°05'5 5.2
2016-Jan-22 06:33N 32°32' W 091°06'  

Dump ship's entire track history